createdAt,value
2018-10-17T00:01:34.643Z,72.42
2018-10-17T00:03:46.834Z,72.07
2018-10-17T00:05:59.063Z,72.10
2018-10-17T00:08:11.257Z,72.65
2018-10-17T00:10:29.947Z,72.55
2018-10-17T00:12:49.897Z,72.18
2018-10-17T00:15:02.143Z,72.29
2018-10-17T00:17:14.434Z,72.66
2018-10-17T00:19:26.557Z,72.91
2018-10-17T00:21:38.802Z,73.20
2018-10-17T00:23:51.026Z,73.66
2018-10-17T00:26:03.851Z,73.03
2018-10-17T00:28:16.049Z,73.57
2018-10-17T00:30:28.207Z,73.01
2018-10-17T00:32:40.458Z,73.66
2018-10-17T00:34:52.974Z,73.17
2018-10-17T00:37:05.225Z,73.53
2018-10-17T00:39:17.425Z,74.15
2018-10-17T00:41:29.631Z,73.11
2018-10-17T00:43:41.839Z,74.39
2018-10-17T00:45:54.021Z,74.14
2018-10-17T00:48:06.230Z,74.04
2018-10-17T00:50:18.480Z,73.88
2018-10-17T00:52:30.687Z,73.67
2018-10-17T00:54:42.927Z,73.82
2018-10-17T00:56:55.103Z,73.31
2018-10-17T00:59:16.090Z,74.07
2018-10-17T01:01:28.199Z,73.74
2018-10-17T01:03:40.436Z,73.99
2018-10-17T01:05:52.623Z,74.51
2018-10-17T01:08:04.882Z,75.39
2018-10-17T01:10:17.066Z,75.49
2018-10-17T01:12:29.274Z,75.80
2018-10-17T01:14:41.542Z,75.51
2018-10-17T01:16:53.783Z,76.02
2018-10-17T01:19:06.106Z,76.12
2018-10-17T01:21:18.302Z,75.21
2018-10-17T01:23:30.476Z,75.07
2018-10-17T01:25:42.694Z,75.52
2018-10-17T01:27:54.893Z,75.45
2018-10-17T01:30:07.237Z,75.24
2018-10-17T01:32:19.433Z,75.15
2018-10-17T01:34:31.675Z,75.26
2018-10-17T01:36:43.871Z,75.43
2018-10-17T01:38:56.064Z,75.61
2018-10-17T01:41:08.364Z,74.72
2018-10-17T01:43:20.571Z,75.14
2018-10-17T01:45:32.760Z,76.06
2018-10-17T01:47:44.953Z,75.99
2018-10-17T01:49:57.303Z,76.87
2018-10-17T01:52:09.494Z,77.44
2018-10-17T01:54:21.673Z,77.71
2018-10-17T01:56:33.924Z,76.66
2018-10-17T01:58:46.106Z,77.39
2018-10-17T02:01:03.425Z,76.35
2018-10-17T02:03:28.673Z,76.41
2018-10-17T02:05:41.018Z,76.32
2018-10-17T02:07:53.199Z,76.76
2018-10-17T02:10:05.425Z,76.79
2018-10-17T02:12:17.618Z,76.88
2018-10-17T02:14:29.806Z,76.19
2018-10-17T02:16:42.030Z,76.81
2018-10-17T02:18:54.247Z,76.07
2018-10-17T02:21:06.440Z,75.96
2018-10-17T02:23:18.657Z,76.30
2018-10-17T02:25:30.875Z,76.61
2018-10-17T02:27:43.057Z,77.43
2018-10-17T02:29:55.309Z,77.98
2018-10-17T02:32:07.474Z,78.36
2018-10-17T02:34:19.663Z,78.34
2018-10-17T02:36:31.898Z,78.70
2018-10-17T02:38:44.130Z,78.57
2018-10-17T02:41:01.975Z,78.06
2018-10-17T02:43:14.326Z,77.98
2018-10-17T02:45:26.411Z,78.51
2018-10-17T02:47:38.652Z,79.03
2018-10-17T02:49:50.939Z,78.79
2018-10-17T02:52:03.086Z,79.07
2018-10-17T02:54:15.311Z,78.62
2018-10-17T02:56:27.500Z,78.07
2018-10-17T02:58:39.733Z,77.92
2018-10-17T03:00:51.934Z,78.07
2018-10-17T03:03:04.495Z,78.42
2018-10-17T03:05:16.751Z,78.00
2018-10-17T03:07:28.946Z,78.29
2018-10-17T03:09:41.223Z,77.92
2018-10-17T03:11:53.415Z,78.63
2018-10-17T03:14:05.631Z,78.61
2018-10-17T03:16:17.833Z,78.58
2018-10-17T03:18:30.056Z,78.02
2018-10-17T03:20:42.355Z,79.05
2018-10-17T03:22:54.594Z,78.45
2018-10-17T03:25:07.749Z,78.19
2018-10-17T03:27:19.884Z,78.33
2018-10-17T03:29:32.096Z,78.21
2018-10-17T03:31:44.296Z,77.30
2018-10-17T03:33:56.503Z,78.05
2018-10-17T03:36:08.707Z,77.81
2018-10-17T03:38:20.889Z,77.58
2018-10-17T03:40:33.080Z,77.91
2018-10-17T03:42:45.308Z,77.28
2018-10-17T03:44:57.546Z,78.09
2018-10-17T03:47:09.789Z,77.49
2018-10-17T03:49:21.982Z,77.39
2018-10-17T03:51:34.178Z,78.55
2018-10-17T03:53:46.359Z,77.32
2018-10-17T03:55:58.565Z,77.98
2018-10-17T03:58:10.760Z,78.38
2018-10-17T04:00:23.059Z,77.67
2018-10-17T04:02:35.462Z,78.15
2018-10-17T04:04:47.723Z,78.98
2018-10-17T04:07:00.017Z,78.67
2018-10-17T04:09:12.199Z,78.09
2018-10-17T04:11:24.640Z,77.89
2018-10-17T04:13:36.848Z,78.24
2018-10-17T04:15:59.573Z,77.79
2018-10-17T04:18:19.418Z,77.23
2018-10-17T04:20:31.602Z,78.08
2018-10-17T04:22:48.372Z,78.77
2018-10-17T04:25:00.681Z,78.32
2018-10-17T04:27:12.867Z,77.61
2018-10-17T04:29:25.046Z,77.60
2018-10-17T04:31:37.279Z,78.20
2018-10-17T04:33:49.516Z,78.23
2018-10-17T04:36:01.873Z,77.16
2018-10-17T04:38:14.129Z,77.85
2018-10-17T04:40:26.320Z,77.45
2018-10-17T04:42:38.548Z,77.81
2018-10-17T04:44:50.768Z,77.60
2018-10-17T04:47:03.085Z,79.93
2018-10-17T04:49:15.298Z,80.64
2018-10-17T04:51:27.461Z,77.59
2018-10-17T04:53:39.664Z,74.65
2018-10-17T04:55:51.855Z,74.77
2018-10-17T04:58:04.138Z,74.93
2018-10-17T05:00:16.339Z,75.19
2018-10-17T05:02:28.571Z,75.51
2018-10-17T05:04:40.911Z,76.69
2018-10-17T05:06:52.992Z,77.14
2018-10-17T05:09:08.031Z,76.73
2018-10-17T05:11:20.394Z,76.99
2018-10-17T05:13:32.674Z,77.50
2018-10-17T05:15:44.872Z,77.80
2018-10-17T05:17:57.066Z,78.31
2018-10-17T05:20:13.299Z,78.52
2018-10-17T05:22:28.516Z,78.59
2018-10-17T05:24:40.741Z,78.55
2018-10-17T05:26:52.926Z,79.09
2018-10-17T05:29:05.211Z,79.12
2018-10-17T05:31:17.449Z,78.82
2018-10-17T05:33:29.582Z,79.77
2018-10-17T05:35:41.801Z,78.86
2018-10-17T05:37:54.036Z,78.83
2018-10-17T05:40:06.258Z,78.57
2018-10-17T05:42:18.491Z,78.96
2018-10-17T05:44:30.809Z,79.36
2018-10-17T05:46:42.920Z,79.20
2018-10-17T05:48:55.958Z,79.27
2018-10-17T05:51:08.117Z,79.25
2018-10-17T05:53:20.298Z,78.57
2018-10-17T05:55:32.604Z,78.60
2018-10-17T05:57:44.817Z,77.89
2018-10-17T05:59:57.057Z,78.18
2018-10-17T06:02:12.073Z,78.61
2018-10-17T06:04:24.216Z,78.53
2018-10-17T06:06:36.451Z,78.39
2018-10-17T06:08:48.646Z,78.49
2018-10-17T06:11:01.113Z,78.23
2018-10-17T06:13:13.308Z,79.11
2018-10-17T06:15:25.545Z,79.11
2018-10-17T06:17:37.756Z,78.71
2018-10-17T06:19:50.087Z,79.04
2018-10-17T06:22:02.341Z,79.02
2018-10-17T06:24:16.449Z,78.67
2018-10-17T06:26:28.763Z,78.86
2018-10-17T06:28:40.975Z,79.08
2018-10-17T06:30:53.190Z,78.66
2018-10-17T06:33:05.432Z,78.25
2018-10-17T06:35:17.651Z,78.79
2018-10-17T06:37:29.847Z,79.11
2018-10-17T06:39:42.059Z,78.99
2018-10-17T06:41:54.381Z,78.06
2018-10-17T06:44:07.024Z,78.94
2018-10-17T06:46:20.046Z,77.82
2018-10-17T06:48:32.514Z,77.95
2018-10-17T06:50:44.702Z,77.91
2018-10-17T06:52:56.946Z,78.69
2018-10-17T06:55:09.265Z,77.89
2018-10-17T06:57:21.417Z,77.91
2018-10-17T06:59:33.699Z,78.53
2018-10-17T07:01:45.904Z,78.11
2018-10-17T07:03:59.426Z,78.05
2018-10-17T07:06:11.652Z,78.54
2018-10-17T07:08:23.965Z,77.48
2018-10-17T07:10:36.151Z,74.83
2018-10-17T07:12:48.326Z,73.02
2018-10-17T07:15:00.552Z,71.09
2018-10-17T07:17:12.852Z,69.85
2018-10-17T07:19:25.161Z,68.89
2018-10-17T07:21:37.380Z,66.59
2018-10-17T07:23:49.608Z,65.76
2018-10-17T07:26:01.856Z,64.35
2018-10-17T07:28:14.139Z,62.61
2018-10-17T07:30:26.357Z,61.77
2018-10-17T07:32:38.608Z,60.65
2018-10-17T07:34:50.871Z,60.62
2018-10-17T07:37:03.102Z,60.20
2018-10-17T07:39:15.319Z,58.63
2018-10-17T07:41:27.589Z,58.00
2018-10-17T07:43:39.815Z,58.19
2018-10-17T07:45:52.047Z,57.72
2018-10-17T07:48:04.499Z,56.40
2018-10-17T07:50:16.687Z,56.08
2018-10-17T07:52:29.649Z,55.20
2018-10-17T07:54:41.879Z,54.27
2018-10-17T07:56:54.134Z,54.42
2018-10-17T07:59:06.379Z,54.25
2018-10-17T08:01:18.623Z,53.74
2018-10-17T08:03:30.807Z,52.79
2018-10-17T08:05:43.041Z,52.87
2018-10-17T08:07:55.240Z,52.50
2018-10-17T08:10:08.647Z,52.35
2018-10-17T08:12:20.897Z,52.80
2018-10-17T08:14:33.083Z,52.47
2018-10-17T08:16:45.320Z,51.42
2018-10-17T08:18:57.563Z,51.20
2018-10-17T08:21:09.922Z,54.00
2018-10-17T08:23:22.081Z,51.19
2018-10-17T08:25:34.314Z,51.05
2018-10-17T08:27:46.544Z,50.53
2018-10-17T08:29:58.767Z,50.52
2018-10-17T08:32:11.074Z,49.41
2018-10-17T08:34:23.266Z,49.01
2018-10-17T08:36:35.701Z,47.79
2018-10-17T08:38:47.770Z,49.72
2018-10-17T08:41:00.053Z,48.25
2018-10-17T08:43:12.259Z,48.25
2018-10-17T08:45:25.391Z,48.09
2018-10-17T08:47:37.631Z,48.13
2018-10-17T08:49:49.883Z,48.51
2018-10-17T08:52:02.220Z,49.05
2018-10-17T08:54:14.437Z,49.09
2018-10-17T08:56:26.803Z,47.65
2018-10-17T08:58:39.059Z,47.82
2018-10-17T09:00:51.250Z,47.81
2018-10-17T09:03:03.603Z,47.63
2018-10-17T09:05:15.835Z,47.59
2018-10-17T09:07:28.063Z,47.18
2018-10-17T09:09:40.311Z,46.98
2018-10-17T09:11:52.561Z,47.43
2018-10-17T09:14:05.298Z,46.87
2018-10-17T09:16:17.586Z,46.91
2018-10-17T09:18:29.802Z,45.89
2018-10-17T09:20:42.424Z,45.84
2018-10-17T09:22:54.321Z,45.72
2018-10-17T09:25:06.624Z,45.04
2018-10-17T09:27:18.807Z,44.91
2018-10-17T09:29:31.029Z,45.39
2018-10-17T09:31:46.824Z,45.03
2018-10-17T09:33:59.052Z,44.91
2018-10-17T09:36:11.334Z,46.05
2018-10-17T09:38:23.508Z,45.48
2018-10-17T09:40:35.731Z,45.01
2018-10-17T09:42:48.032Z,44.95
2018-10-17T09:45:00.343Z,44.21
2018-10-17T09:47:12.554Z,45.04
2018-10-17T09:49:24.772Z,46.06
2018-10-17T09:51:36.968Z,45.04
2018-10-17T09:53:49.201Z,44.82
2018-10-17T09:56:01.431Z,43.89
2018-10-17T09:58:18.441Z,43.36
2018-10-17T10:00:36.286Z,42.94
2018-10-17T10:02:50.015Z,42.38
2018-10-17T10:05:02.238Z,43.11
2018-10-17T10:07:14.486Z,42.57
2018-10-17T10:09:27.699Z,43.85
2018-10-17T10:11:39.972Z,42.96
2018-10-17T10:13:52.179Z,42.61
2018-10-17T10:16:04.496Z,44.12
2018-10-17T10:18:16.739Z,44.19
2018-10-17T10:20:28.940Z,43.73
2018-10-17T10:22:41.227Z,43.18
2018-10-17T10:24:53.577Z,42.38
2018-10-17T10:27:05.715Z,43.46
2018-10-17T10:29:17.954Z,42.45
2018-10-17T10:31:30.191Z,43.85
2018-10-17T10:33:42.442Z,43.43
2018-10-17T10:35:55.690Z,42.95
2018-10-17T10:38:07.927Z,43.26
2018-10-17T10:40:20.161Z,42.51
2018-10-17T10:42:33.434Z,42.67
2018-10-17T10:44:45.649Z,43.76
2018-10-17T10:46:57.877Z,42.17
2018-10-17T10:49:13.156Z,42.79
2018-10-17T10:51:26.247Z,42.53
2018-10-17T10:53:38.493Z,42.83
2018-10-17T10:55:50.726Z,42.96
2018-10-17T10:58:03.944Z,43.31
2018-10-17T11:00:16.262Z,42.17
2018-10-17T11:02:28.351Z,41.12
2018-10-17T11:04:40.658Z,41.31
2018-10-17T11:06:52.895Z,41.25
2018-10-17T11:09:06.816Z,41.60
2018-10-17T11:11:19.279Z,41.58
2018-10-17T11:13:31.309Z,42.65
2018-10-17T11:15:43.516Z,42.98
2018-10-17T11:17:55.732Z,42.12
2018-10-17T11:20:08.355Z,42.88
2018-10-17T11:22:20.593Z,42.86
2018-10-17T11:24:32.818Z,42.61
2018-10-17T11:26:45.154Z,41.22
2018-10-17T11:28:57.455Z,42.67
2018-10-17T11:31:09.659Z,41.86
2018-10-17T11:33:21.895Z,42.31
2018-10-17T11:35:34.172Z,42.81
2018-10-17T11:37:46.512Z,41.75
2018-10-17T11:39:58.757Z,42.19
2018-10-17T11:42:10.985Z,42.31
2018-10-17T11:44:24.054Z,41.81
2018-10-17T11:46:37.275Z,42.42
2018-10-17T11:48:51.525Z,42.82
2018-10-17T11:51:03.850Z,41.88
2018-10-17T11:53:16.086Z,42.17
2018-10-17T11:55:28.307Z,42.14
2018-10-17T11:57:40.539Z,41.86
2018-10-17T11:59:52.812Z,41.41
2018-10-17T12:02:05.216Z,40.02
2018-10-17T12:04:17.641Z,40.31
2018-10-17T12:06:29.784Z,40.95
2018-10-17T12:08:42.119Z,41.40
2018-10-17T12:10:54.379Z,41.47
2018-10-17T12:13:06.670Z,40.36
2018-10-17T12:15:18.905Z,40.44
2018-10-17T12:17:31.883Z,41.74
2018-10-17T12:19:45.119Z,38.76
2018-10-17T12:21:57.366Z,39.81
2018-10-17T12:24:09.622Z,39.95
2018-10-17T12:26:21.828Z,40.86
2018-10-17T12:28:34.153Z,40.75
2018-10-17T12:30:46.275Z,40.88
2018-10-17T12:32:58.591Z,40.84
2018-10-17T12:35:11.198Z,40.62
2018-10-17T12:37:24.947Z,40.72
2018-10-17T12:39:38.206Z,40.86
2018-10-17T12:41:50.530Z,39.64
2018-10-17T12:44:04.718Z,40.33
2018-10-17T12:46:16.922Z,41.00
2018-10-17T12:48:29.187Z,41.82
2018-10-17T12:50:41.399Z,41.06
2018-10-17T12:52:53.747Z,41.37
2018-10-17T12:55:06.522Z,41.08
2018-10-17T12:57:18.750Z,41.62
2018-10-17T12:59:30.972Z,42.11
2018-10-17T13:01:43.249Z,41.61
2018-10-17T13:03:55.466Z,41.34
2018-10-17T13:06:07.987Z,40.81
2018-10-17T13:08:20.195Z,41.01
2018-10-17T13:10:32.481Z,41.65
2018-10-17T13:12:44.741Z,42.34
2018-10-17T13:14:57.031Z,42.71
2018-10-17T13:17:10.224Z,42.55
2018-10-17T13:19:26.243Z,42.68
2018-10-17T13:21:38.492Z,42.13
2018-10-17T13:23:50.767Z,42.60
2018-10-17T13:26:02.978Z,42.16
2018-10-17T13:28:16.140Z,42.38
2018-10-17T13:30:28.433Z,42.44
2018-10-17T13:32:40.683Z,43.23
2018-10-17T13:34:52.928Z,42.22
2018-10-17T13:37:05.477Z,42.80
2018-10-17T13:39:17.672Z,42.44
2018-10-17T13:41:29.912Z,42.94
2018-10-17T13:43:44.012Z,43.23
2018-10-17T13:45:56.258Z,43.15
2018-10-17T13:48:08.495Z,43.76
2018-10-17T13:50:20.719Z,42.71
2018-10-17T13:52:33.016Z,42.13
2018-10-17T13:54:45.306Z,42.52
2018-10-17T13:56:57.455Z,43.31
2018-10-17T13:59:09.829Z,42.98
2018-10-17T14:01:23.173Z,42.98
2018-10-17T14:03:35.479Z,42.58
2018-10-17T14:05:48.007Z,43.94
2018-10-17T14:08:00.249Z,43.50
2018-10-17T14:10:12.479Z,42.82
2018-10-17T14:12:24.704Z,43.90
2018-10-17T14:14:36.974Z,43.30
2018-10-17T14:16:49.218Z,44.71
2018-10-17T14:19:02.406Z,44.80
2018-10-17T14:21:14.706Z,44.52
2018-10-17T14:23:26.939Z,44.90
2018-10-17T14:25:40.156Z,45.49
2018-10-17T14:27:52.359Z,46.43
2018-10-17T14:30:06.641Z,46.75
2018-10-17T14:32:21.730Z,46.01
2018-10-17T14:34:34.331Z,45.77
2018-10-17T14:36:46.588Z,45.73
2018-10-17T14:38:58.877Z,45.68
2018-10-17T14:41:11.210Z,46.04
2018-10-17T14:43:23.392Z,46.19
2018-10-17T14:45:35.618Z,46.02
2018-10-17T14:47:47.921Z,45.83
2018-10-17T14:50:01.981Z,46.55
2018-10-17T14:52:15.268Z,46.82
2018-10-17T14:54:27.515Z,45.81
2018-10-17T14:56:39.738Z,45.90
2018-10-17T14:58:52.078Z,45.83
2018-10-17T15:01:04.373Z,45.88
2018-10-17T15:03:16.734Z,46.27
2018-10-17T15:05:33.683Z,45.70
2018-10-17T15:07:45.952Z,46.11
2018-10-17T15:09:58.305Z,45.50
2018-10-17T15:12:10.542Z,45.78
2018-10-17T15:14:22.772Z,46.55
2018-10-17T15:16:35.079Z,45.76
2018-10-17T15:18:50.245Z,47.54
2018-10-17T15:21:02.531Z,47.09
2018-10-17T15:23:15.730Z,47.17
2018-10-17T15:25:27.991Z,47.33
2018-10-17T15:27:40.280Z,47.55
2018-10-17T15:29:52.544Z,47.03
2018-10-17T15:32:05.610Z,47.32
2018-10-17T15:34:17.850Z,47.72
2018-10-17T15:36:30.091Z,46.93
2018-10-17T15:38:42.336Z,46.97
2018-10-17T15:40:54.535Z,47.95
2018-10-17T15:43:06.892Z,47.54
2018-10-17T15:45:19.419Z,47.35
2018-10-17T15:47:31.603Z,48.37
2018-10-17T15:49:45.846Z,48.01
2018-10-17T15:51:58.107Z,48.33
2018-10-17T15:54:10.473Z,47.58
2018-10-17T15:56:22.644Z,48.01
2018-10-17T15:58:34.912Z,48.44
2018-10-17T16:00:47.270Z,47.80
2018-10-17T16:02:59.484Z,48.01
2018-10-17T16:05:11.892Z,48.60
2018-10-17T16:07:24.084Z,49.30
2018-10-17T16:09:36.427Z,49.25
2018-10-17T16:11:48.627Z,48.97
2018-10-17T16:14:01.694Z,49.46
2018-10-17T16:16:13.964Z,50.05
2018-10-17T16:18:26.174Z,50.78
2018-10-17T16:20:38.514Z,51.76
2018-10-17T16:22:50.841Z,51.72
2018-10-17T16:25:03.230Z,51.65
2018-10-17T16:27:15.512Z,52.30
2018-10-17T16:29:27.915Z,52.54
2018-10-17T16:31:40.215Z,52.74
2018-10-17T16:33:52.447Z,53.54
2018-10-17T16:36:05.269Z,54.55
2018-10-17T16:38:17.568Z,54.65
2018-10-17T16:40:29.723Z,54.48
2018-10-17T16:42:41.992Z,54.95
2018-10-17T16:44:54.239Z,55.60
2018-10-17T16:47:06.568Z,55.77
2018-10-17T16:49:18.763Z,55.31
2018-10-17T16:51:31.090Z,56.19
2018-10-17T16:53:43.420Z,55.94
2018-10-17T16:55:55.673Z,55.84
2018-10-17T16:58:07.943Z,55.96
2018-10-17T17:00:20.159Z,55.89
2018-10-17T17:02:32.405Z,57.08
2018-10-17T17:04:45.499Z,56.71
2018-10-17T17:06:57.779Z,56.31
2018-10-17T17:09:10.685Z,57.21
2018-10-17T17:11:22.838Z,57.17
2018-10-17T17:13:36.999Z,57.14
2018-10-17T17:15:51.016Z,57.16
2018-10-17T17:18:03.330Z,57.71
2018-10-17T17:20:15.563Z,57.70
2018-10-17T17:22:27.800Z,57.68
2018-10-17T17:24:40.233Z,58.46
2018-10-17T17:26:52.663Z,58.20
2018-10-17T17:29:05.097Z,58.87
2018-10-17T17:31:17.440Z,59.36
2018-10-17T17:33:29.765Z,58.85
2018-10-17T17:35:41.997Z,59.16
2018-10-17T17:37:54.256Z,59.28
2018-10-17T17:40:07.706Z,60.75
2018-10-17T17:42:19.929Z,60.11
2018-10-17T17:44:32.313Z,60.31
2018-10-17T17:46:44.578Z,61.40
2018-10-17T17:48:56.770Z,60.62
2018-10-17T17:51:09.013Z,60.68
2018-10-17T17:53:21.339Z,61.46
2018-10-17T17:55:33.640Z,61.26
2018-10-17T17:57:45.906Z,60.75
2018-10-17T17:59:58.231Z,61.07
2018-10-17T18:02:10.528Z,61.19
2018-10-17T18:04:22.815Z,62.48
2018-10-17T18:06:35.073Z,62.20
2018-10-17T18:08:47.292Z,62.88
2018-10-17T18:11:12.159Z,62.81
2018-10-17T18:13:24.415Z,64.33
2018-10-17T18:15:36.691Z,63.52
2018-10-17T18:17:48.919Z,63.46
2018-10-17T18:20:01.230Z,63.63
2018-10-17T18:22:13.451Z,64.42
2018-10-17T18:24:25.707Z,63.95
2018-10-17T18:26:37.950Z,63.90
2018-10-17T18:28:51.059Z,63.70
2018-10-17T18:31:03.331Z,64.46
2018-10-17T18:33:15.599Z,64.10
2018-10-17T18:35:27.922Z,63.97
2018-10-17T18:37:40.208Z,64.27
2018-10-17T18:39:52.508Z,64.48
2018-10-17T18:42:05.140Z,64.59
2018-10-17T18:44:17.398Z,64.77
2018-10-17T18:46:29.752Z,64.72
2018-10-17T18:48:41.994Z,65.12
2018-10-17T18:50:54.316Z,65.41
2018-10-17T18:53:06.524Z,66.12
2018-10-17T18:55:18.818Z,65.70
2018-10-17T18:57:31.067Z,65.78
2018-10-17T18:59:43.293Z,66.58
2018-10-17T19:01:55.575Z,65.88
2018-10-17T19:04:07.843Z,65.82
2018-10-17T19:06:20.072Z,66.54
2018-10-17T19:08:32.315Z,66.48
2018-10-17T19:10:44.587Z,65.78
2018-10-17T19:12:56.886Z,66.23
2018-10-17T19:15:09.159Z,66.72
2018-10-17T19:17:21.405Z,66.87
2018-10-17T19:19:33.726Z,67.21
2018-10-17T19:21:45.955Z,66.93
2018-10-17T19:23:58.214Z,66.55
2018-10-17T19:26:10.520Z,67.18
2018-10-17T19:28:22.860Z,66.92
2018-10-17T19:30:35.134Z,66.73
2018-10-17T19:32:47.392Z,66.93
2018-10-17T19:34:59.634Z,67.15
2018-10-17T19:37:11.922Z,67.19
2018-10-17T19:39:24.193Z,68.17
2018-10-17T19:41:36.465Z,67.50
2018-10-17T19:43:48.721Z,68.44
2018-10-17T19:46:00.972Z,68.27
2018-10-17T19:48:13.240Z,68.37
2018-10-17T19:50:25.510Z,68.36
2018-10-17T19:52:37.836Z,68.01
2018-10-17T19:54:50.218Z,68.54
2018-10-17T19:57:02.514Z,68.71
2018-10-17T19:59:14.832Z,69.03
2018-10-17T20:01:27.624Z,68.12
2018-10-17T20:03:39.900Z,68.33
2018-10-17T20:05:52.197Z,67.94
2018-10-17T20:08:04.472Z,67.90
2018-10-17T20:10:16.767Z,68.43
2018-10-17T20:12:28.991Z,69.01
2018-10-17T20:14:41.248Z,69.42
2018-10-17T20:16:53.601Z,69.16
2018-10-17T20:19:05.954Z,69.52
2018-10-17T20:21:18.293Z,68.75
2018-10-17T20:23:30.551Z,69.68
2018-10-17T20:25:42.827Z,69.31
2018-10-17T20:27:55.055Z,68.68
2018-10-17T20:30:07.897Z,70.16
2018-10-17T20:32:20.196Z,69.42
2018-10-17T20:34:32.452Z,69.44
2018-10-17T20:36:44.691Z,69.55
2018-10-17T20:38:56.961Z,70.07
2018-10-17T20:41:09.288Z,69.48
2018-10-17T20:43:21.521Z,69.50
2018-10-17T20:45:33.759Z,70.28
2018-10-17T20:47:46.009Z,70.43
2018-10-17T20:49:58.309Z,70.41
2018-10-17T20:52:10.582Z,70.42
2018-10-17T20:54:22.810Z,70.46
2018-10-17T20:56:35.134Z,70.17
2018-10-17T20:58:47.391Z,70.86
2018-10-17T21:00:59.651Z,70.61
2018-10-17T21:03:11.939Z,71.09
2018-10-17T21:05:24.147Z,71.27
2018-10-17T21:07:36.479Z,70.32
2018-10-17T21:09:48.712Z,70.62
2018-10-17T21:12:01.001Z,71.01
2018-10-17T21:14:13.335Z,71.16
2018-10-17T21:16:25.566Z,70.72
2018-10-17T21:18:37.885Z,71.06
2018-10-17T21:20:50.064Z,71.85
2018-10-17T21:23:02.362Z,71.35
2018-10-17T21:25:14.555Z,70.70
2018-10-17T21:27:26.818Z,71.48
2018-10-17T21:29:39.039Z,71.44
2018-10-17T21:31:51.282Z,71.43
2018-10-17T21:34:03.532Z,71.75
2018-10-17T21:36:15.749Z,72.55
2018-10-17T21:38:28.001Z,72.38
2018-10-17T21:40:40.219Z,72.87
2018-10-17T21:42:52.491Z,72.98
2018-10-17T21:45:05.515Z,72.47
2018-10-17T21:47:17.759Z,72.28
2018-10-17T21:49:29.963Z,72.44
2018-10-17T21:51:42.191Z,71.91
2018-10-17T21:53:54.481Z,71.44
2018-10-17T21:56:06.861Z,72.18
2018-10-17T21:58:19.003Z,72.15
2018-10-17T22:00:31.341Z,72.00
2018-10-17T22:02:43.540Z,72.25
2018-10-17T22:04:55.784Z,71.76
2018-10-17T22:07:08.256Z,71.64
2018-10-17T22:09:20.460Z,71.72
2018-10-17T22:11:32.689Z,72.75
2018-10-17T22:13:44.951Z,72.79
2018-10-17T22:15:57.246Z,73.51
2018-10-17T22:18:09.449Z,72.76
2018-10-17T22:20:21.735Z,72.90
2018-10-17T22:22:33.972Z,73.85
2018-10-17T22:24:46.251Z,73.46
2018-10-17T22:26:58.519Z,72.89
2018-10-17T22:29:10.707Z,72.88
2018-10-17T22:31:22.937Z,72.50
2018-10-17T22:33:35.147Z,72.85
2018-10-17T22:35:47.365Z,73.35
2018-10-17T22:37:59.647Z,73.42
2018-10-17T22:40:11.868Z,73.26
2018-10-17T22:42:24.090Z,73.30
2018-10-17T22:44:36.343Z,72.49
2018-10-17T22:46:48.590Z,72.92
2018-10-17T22:49:00.842Z,72.96
2018-10-17T22:51:13.057Z,73.14
2018-10-17T22:53:25.278Z,72.91
2018-10-17T22:55:37.462Z,73.54
2018-10-17T22:57:49.700Z,73.17
2018-10-17T23:00:02.163Z,73.24
2018-10-17T23:02:14.485Z,73.76
2018-10-17T23:04:26.590Z,74.03
2018-10-17T23:06:38.794Z,74.08
2018-10-17T23:08:51.016Z,73.58
2018-10-17T23:11:03.226Z,74.15
2018-10-17T23:13:15.455Z,73.34
2018-10-17T23:15:27.668Z,73.69
2018-10-17T23:17:39.895Z,73.54
2018-10-17T23:19:52.209Z,74.25
2018-10-17T23:22:04.581Z,74.10
2018-10-17T23:24:16.791Z,73.95
2018-10-17T23:26:29.000Z,73.87
2018-10-17T23:28:41.187Z,74.61
2018-10-17T23:30:53.419Z,73.84
2018-10-17T23:33:05.657Z,73.66
2018-10-17T23:35:17.951Z,74.54
2018-10-17T23:37:30.262Z,73.85
2018-10-17T23:39:42.514Z,74.23
2018-10-17T23:41:54.760Z,74.15
2018-10-17T23:44:07.004Z,74.97
2018-10-17T23:46:19.238Z,74.96
2018-10-17T23:48:31.440Z,74.79
2018-10-17T23:50:43.644Z,75.70
2018-10-17T23:52:55.861Z,75.62
2018-10-17T23:55:08.422Z,75.58
2018-10-17T23:57:20.662Z,75.23
2018-10-17T23:59:32.839Z,75.25
